Time;durP1;ratioP1;P1;durP2;ratioP2;P2;SDS_P1;SDS_P2;PMS_P1;PMS_P2;Temp;Humidity;BMP_temperature;BMP_pressure;BME280_temperature;BME280_humidity;BME280_pressure;Samples;Min_cycle;Max_cycle;Signal;HPM_P1;HPM_P2
2022/10/15 00:00:39;;;;;;;18.63;9.43;;;17.40;80.80;;;;;;5054195;28;20025;-77
2022/10/15 00:03:05;;;;;;;12.43;8.75;;;17.40;80.60;;;;;;5054112;28;20436;-79
2022/10/15 00:05:31;;;;;;;18.85;9.00;;;17.40;81.00;;;;;;5053827;28;20486;-74
2022/10/15 00:07:57;;;;;;;17.17;8.93;;;17.40;81.00;;;;;;5054120;28;20036;-74
2022/10/15 00:10:23;;;;;;;15.32;9.05;;;17.40;80.90;;;;;;5055544;28;20028;-74
2022/10/15 00:12:49;;;;;;;14.38;8.82;;;17.40;80.60;;;;;;5063094;28;20028;-71
2022/10/15 00:15:15;;;;;;;13.70;9.27;;;17.30;80.90;;;;;;5059673;28;20029;-73
2022/10/15 00:17:41;;;;;;;15.88;9.32;;;17.30;80.80;;;;;;5054044;28;20064;-73
2022/10/15 00:20:09;;;;;;;14.18;9.52;;;17.30;80.80;;;;;;5053460;28;20056;-74
2022/10/15 00:22:35;;;;;;;12.75;9.43;;;17.30;80.90;;;;;;5053519;28;20105;-73
2022/10/15 00:25:02;;;;;;;14.43;9.88;;;17.30;80.90;;;;;;5053788;28;20470;-73
2022/10/15 00:27:28;;;;;;;14.05;8.88;;;17.30;80.80;;;;;;5053507;28;20032;-74
2022/10/15 00:29:53;;;;;;;17.67;8.82;;;17.20;80.70;;;;;;5052295;28;20033;-70
2022/10/15 00:32:19;;;;;;;14.60;8.98;;;17.20;80.90;;;;;;5053322;28;20029;-76
2022/10/15 00:34:46;;;;;;;12.18;8.77;;;17.20;81.00;;;;;;5053526;28;20079;-73
2022/10/15 00:37:12;;;;;;;17.13;8.63;;;17.20;80.90;;;;;;5053105;28;20037;-73
2022/10/15 00:39:38;;;;;;;15.70;9.40;;;17.30;80.90;;;;;;5053669;28;20024;-73
2022/10/15 00:42:04;;;;;;;14.43;9.27;;;17.30;80.90;;;;;;5052058;28;20040;-73
2022/10/15 00:44:30;;;;;;;15.18;9.80;;;17.20;81.10;;;;;;5053279;28;20031;-72
2022/10/15 00:47:01;;;;;;;16.85;9.30;;;17.30;81.20;;;;;;5052955;28;20115;-74
2022/10/15 00:49:43;;;;;;;16.55;9.43;;;17.30;81.00;;;;;;5053239;28;20053;-72
2022/10/15 00:52:22;;;;;;;16.65;9.25;;;17.30;82.00;;;;;;5053317;28;20021;-72
2022/10/15 00:55:02;;;;;;;16.17;10.13;;;17.20;82.00;;;;;;5053023;28;20025;-74
2022/10/15 00:57:30;;;;;;;15.35;10.13;;;17.10;82.10;;;;;;5052841;28;20041;-71
2022/10/15 01:00:00;;;;;;;14.43;9.85;;;17.10;82.40;;;;;;5053076;28;20025;-71
2022/10/15 01:02:26;;;;;;;12.95;9.70;;;17.10;82.50;;;;;;5053021;28;20421;-74
2022/10/15 01:04:53;;;;;;;16.65;9.93;;;17.10;82.70;;;;;;5053063;28;20040;-72
2022/10/15 01:07:19;;;;;;;20.83;9.65;;;17.00;82.70;;;;;;5051525;28;20031;-72
2022/10/15 01:09:45;;;;;;;15.05;9.23;;;17.00;83.00;;;;;;5053092;28;20017;-75
2022/10/15 01:12:37;;;;;;;15.00;10.10;;;17.00;83.10;;;;;;5052991;28;20107;-77
2022/10/15 01:15:08;;;;;;;15.13;9.13;;;17.00;83.70;;;;;;5052798;28;20025;-75
2022/10/15 01:17:48;;;;;;;13.98;9.77;;;16.90;83.70;;;;;;5052792;28;20111;-73
2022/10/15 01:20:51;;;;;;;16.33;9.95;;;16.90;83.70;;;;;;5053002;28;20028;-71
2022/10/15 01:23:54;;;;;;;12.65;9.20;;;16.90;83.80;;;;;;5052896;28;20021;-72
2022/10/15 01:27:04;;;;;;;13.60;9.15;;;16.90;83.60;;;;;;5052766;28;20025;-75
2022/10/15 01:30:04;;;;;;;23.80;10.68;;;16.90;83.70;;;;;;5049689;28;20390;-77
2022/10/15 01:32:57;;;;;;;15.02;9.35;;;16.90;84.00;;;;;;5051613;28;20119;-77
2022/10/15 01:35:37;;;;;;;14.68;9.43;;;16.80;83.70;;;;;;5049331;28;20562;-72
2022/10/15 01:38:19;;;;;;;15.05;9.52;;;16.80;84.10;;;;;;5053027;28;20041;-75
2022/10/15 01:40:49;;;;;;;14.70;10.02;;;16.80;84.00;;;;;;5054000;28;20013;-74
2022/10/15 01:43:21;;;;;;;12.35;9.45;;;16.80;84.30;;;;;;5053378;28;20508;-75
2022/10/15 01:45:57;;;;;;;16.88;10.00;;;16.80;84.20;;;;;;5052527;28;20025;-74
2022/10/15 01:48:26;;;;;;;19.10;10.00;;;16.70;84.30;;;;;;5051529;28;20119;-76
2022/10/15 01:50:56;;;;;;;14.55;9.32;;;16.70;84.20;;;;;;5053035;28;20078;-75
2022/10/15 01:53:25;;;;;;;14.13;10.02;;;16.70;84.30;;;;;;5052751;28;20086;-74
2022/10/15 01:56:01;;;;;;;16.02;10.20;;;16.80;84.60;;;;;;5052630;28;20045;-75
2022/10/15 01:58:29;;;;;;;19.08;9.95;;;16.70;84.50;;;;;;5052372;28;20049;-75
2022/10/15 02:00:57;;;;;;;12.55;9.32;;;16.70;84.70;;;;;;5018850;28;20052;-76
2022/10/15 02:03:23;;;;;;;14.52;10.13;;;16.70;84.50;;;;;;5052645;28;20021;-77
2022/10/15 02:06:05;;;;;;;13.80;9.80;;;16.70;84.70;;;;;;5053961;28;20032;-74
2022/10/15 02:08:49;;;;;;;14.88;10.15;;;16.70;84.60;;;;;;5056404;28;20471;-77
2022/10/15 02:11:17;;;;;;;;;;;16.70;84.60;;;;;;5055763;28;20040;-74
2022/10/15 02:14:01;;;;;;;16.10;10.10;;;16.70;85.10;;;;;;5056992;28;19905;-77
2022/10/15 02:16:38;;;;;;;17.42;10.63;;;16.70;84.90;;;;;;5056131;28;20033;-76
2022/10/15 02:19:07;;;;;;;12.93;9.77;;;16.70;84.60;;;;;;5056211;28;20032;-76
2022/10/15 02:21:47;;;;;;;17.48;10.52;;;16.60;84.50;;;;;;5055119;28;20033;-75
2022/10/15 02:24:21;;;;;;;16.98;10.13;;;16.60;85.00;;;;;;5056011;28;20100;-77
2022/10/15 02:26:48;;;;;;;16.85;11.05;;;16.60;85.10;;;;;;5056009;28;20025;-73
2022/10/15 02:29:19;;;;;;;16.10;9.82;;;16.60;84.70;;;;;;5055630;28;20031;-74
2022/10/15 02:31:46;;;;;;;14.88;10.65;;;16.60;84.90;;;;;;5056000;28;20056;-74
2022/10/15 02:34:17;;;;;;;15.23;10.32;;;16.60;84.80;;;;;;5040979;28;20057;-73
2022/10/15 02:36:43;;;;;;;16.02;10.18;;;16.50;84.70;;;;;;5066672;28;20060;-74
2022/10/15 02:39:17;;;;;;;13.85;10.00;;;16.50;84.70;;;;;;5065888;28;20028;-75
2022/10/15 02:41:43;;;;;;;17.40;10.05;;;16.50;84.70;;;;;;5059783;28;20028;-74
2022/10/15 02:44:11;;;;;;;17.52;9.50;;;16.50;84.80;;;;;;5056378;28;20073;-75
2022/10/15 02:46:37;;;;;;;17.63;9.32;;;16.40;84.70;;;;;;5055672;28;20025;-72
2022/10/15 02:49:03;;;;;;;13.82;9.98;;;16.40;84.80;;;;;;5055384;28;20494;-71
2022/10/15 02:51:33;;;;;;;14.55;9.23;;;16.40;85.00;;;;;;5055046;28;20037;-78
2022/10/15 02:54:00;;;;;;;15.80;9.63;;;16.30;84.90;;;;;;5055640;28;20478;-76
2022/10/15 02:56:26;;;;;;;15.75;9.73;;;16.30;85.20;;;;;;5053738;28;20164;-75
2022/10/15 02:58:51;;;;;;;16.13;10.80;;;16.30;85.20;;;;;;5054956;28;20087;-75
2022/10/15 03:01:17;;;;;;;15.50;10.13;;;16.20;85.30;;;;;;5055158;28;20036;-77
2022/10/15 03:03:43;;;;;;;18.50;10.13;;;16.20;85.40;;;;;;5055341;28;20029;-76
2022/10/15 03:06:09;;;;;;;12.63;9.48;;;16.20;85.60;;;;;;5053859;28;20556;-76
2022/10/15 03:08:36;;;;;;;17.08;10.35;;;16.20;85.50;;;;;;5055324;28;20482;-76
2022/10/15 03:11:02;;;;;;;21.10;11.15;;;16.10;85.80;;;;;;5055127;28;20032;-75
2022/10/15 03:13:29;;;;;;;16.02;10.10;;;16.10;85.70;;;;;;5055045;28;20025;-76
2022/10/15 03:15:55;;;;;;;18.67;9.45;;;16.20;85.80;;;;;;5054840;28;20036;-72
2022/10/15 03:18:21;;;;;;;16.08;9.63;;;16.20;85.80;;;;;;5053495;28;20079;-74
2022/10/15 03:20:54;;;;;;;15.45;10.15;;;16.20;85.90;;;;;;5055349;28;20025;-71
2022/10/15 03:23:20;;;;;;;14.10;10.15;;;16.20;85.70;;;;;;5054769;28;20014;-73
2022/10/15 03:25:46;;;;;;;16.88;10.55;;;16.20;85.90;;;;;;5054510;28;20419;-76
2022/10/15 03:28:12;;;;;;;18.27;9.73;;;16.10;85.80;;;;;;5054718;28;20025;-74
2022/10/15 03:30:38;;;;;;;13.20;9.35;;;16.10;85.90;;;;;;5054676;28;20025;-77
2022/10/15 03:33:05;;;;;;;15.55;9.80;;;16.10;86.10;;;;;;5054721;28;20024;-77
2022/10/15 03:35:31;;;;;;;15.85;9.65;;;16.10;86.50;;;;;;5053212;28;20033;-77
2022/10/15 03:37:56;;;;;;;13.20;9.73;;;16.00;86.10;;;;;;5054937;28;20033;-75
2022/10/15 03:40:22;;;;;;;15.20;9.55;;;16.00;86.30;;;;;;5054736;28;20116;-74
2022/10/15 03:42:51;;;;;;;16.20;9.52;;;16.00;86.10;;;;;;5054405;28;20122;-75
2022/10/15 03:45:18;;;;;;;18.67;9.30;;;16.00;86.30;;;;;;5054476;28;20029;-73
2022/10/15 03:47:44;;;;;;;14.35;9.23;;;16.00;86.20;;;;;;5054492;28;20083;-72
2022/10/15 03:50:09;;;;;;;15.88;10.00;;;16.00;86.30;;;;;;5052948;28;20460;-72
2022/10/15 03:52:36;;;;;;;13.00;9.88;;;16.10;86.30;;;;;;5053982;28;20021;-72
2022/10/15 03:55:02;;;;;;;19.02;10.70;;;16.10;86.30;;;;;;5053937;28;20033;-76
2022/10/15 03:57:28;;;;;;;15.45;10.30;;;16.10;86.30;;;;;;5053902;28;20053;-75
2022/10/15 03:59:54;;;;;;;13.93;10.02;;;16.10;86.20;;;;;;5054297;28;20378;-77
2022/10/15 04:02:21;;;;;;;22.83;10.15;;;16.00;86.20;;;;;;5054086;28;20049;-75
2022/10/15 04:04:50;;;;;;;18.38;10.18;;;16.00;86.80;;;;;;5054221;28;20052;-72
2022/10/15 04:07:15;;;;;;;18.33;9.85;;;16.00;86.30;;;;;;5053803;28;20115;-75
2022/10/15 04:09:41;;;;;;;18.33;10.23;;;16.00;87.00;;;;;;5054503;28;20035;-76
2022/10/15 04:12:07;;;;;;;14.38;9.57;;;15.90;86.40;;;;;;5053093;28;20051;-75
2022/10/15 04:14:32;;;;;;;13.90;10.13;;;15.90;86.50;;;;;;5054209;28;20017;-75
2022/10/15 04:16:58;;;;;;;16.65;10.98;;;15.90;86.60;;;;;;5053746;28;20402;-75
2022/10/15 04:19:24;;;;;;;14.68;10.18;;;15.90;86.70;;;;;;5053956;28;20033;-75
2022/10/15 04:21:50;;;;;;;17.25;11.18;;;15.90;86.80;;;;;;5053892;28;20029;-76
2022/10/15 04:24:15;;;;;;;18.38;10.52;;;15.80;86.70;;;;;;5054022;28;20029;-76
2022/10/15 04:26:41;;;;;;;16.52;11.25;;;15.80;87.10;;;;;;5053949;28;20040;-72
2022/10/15 04:29:07;;;;;;;17.52;10.32;;;15.80;87.00;;;;;;5053021;28;20024;-73
2022/10/15 04:31:32;;;;;;;15.48;10.23;;;15.80;87.30;;;;;;5052416;28;20124;-73
2022/10/15 04:33:59;;;;;;;15.13;10.15;;;15.70;87.10;;;;;;5053392;28;20462;-71
2022/10/15 04:36:25;;;;;;;16.08;10.38;;;15.70;87.00;;;;;;5051594;28;20501;-72
2022/10/15 04:38:51;;;;;;;16.88;10.60;;;15.70;87.30;;;;;;5053392;28;20044;-71
2022/10/15 04:41:17;;;;;;;16.85;11.00;;;15.70;87.30;;;;;;5052813;28;20083;-72
2022/10/15 04:43:43;;;;;;;15.98;9.98;;;15.70;87.40;;;;;;5051736;28;20020;-71
2022/10/15 04:46:09;;;;;;;15.45;10.48;;;15.70;87.30;;;;;;5051619;28;20025;-72
2022/10/15 04:48:36;;;;;;;18.55;10.63;;;15.70;87.30;;;;;;5053067;28;20021;-71
2022/10/15 04:51:10;;;;;;;15.23;10.88;;;15.70;87.30;;;;;;5053511;28;20443;-72
2022/10/15 04:53:36;;;;;;;17.52;10.50;;;15.70;88.00;;;;;;5051856;28;20476;-76
2022/10/15 04:56:09;;;;;;;18.73;10.73;;;15.70;87.20;;;;;;5053188;28;20210;-73
2022/10/15 04:58:35;;;;;;;16.02;10.98;;;15.70;87.30;;;;;;5053049;28;20094;-77
2022/10/15 05:01:07;;;;;;;18.27;10.95;;;15.70;87.40;;;;;;5053689;28;20079;-77
2022/10/15 05:03:34;;;;;;;14.48;9.07;;;15.70;87.30;;;;;;5059585;28;20025;-76
2022/10/15 05:06:07;;;;;;;13.30;9.90;;;15.70;87.40;;;;;;5059760;28;20025;-74
2022/10/15 05:08:34;;;;;;;21.20;11.23;;;15.70;87.40;;;;;;5053943;28;20017;-76
2022/10/15 05:11:05;;;;;;;14.30;9.95;;;15.80;87.50;;;;;;5052338;28;20039;-78
2022/10/15 05:13:32;;;;;;;22.00;10.68;;;15.80;87.30;;;;;;5053341;28;20047;-75
2022/10/15 05:16:11;;;;;;;16.27;10.65;;;15.80;87.20;;;;;;5052504;28;20478;-75
2022/10/15 05:18:38;;;;;;;15.32;10.05;;;15.80;87.60;;;;;;5051908;28;20040;-78
2022/10/15 05:21:04;;;;;;;16.13;10.57;;;15.80;87.10;;;;;;5052132;28;20032;-77
2022/10/15 05:23:30;;;;;;;16.55;10.60;;;15.80;87.10;;;;;;5052234;28;20025;-77
2022/10/15 05:26:01;;;;;;;17.55;10.25;;;15.80;87.30;;;;;;5053101;28;20106;-76
2022/10/15 05:28:28;;;;;;;17.50;9.63;;;15.80;87.00;;;;;;5053172;28;20029;-77
2022/10/15 05:31:02;;;;;;;15.50;10.40;;;15.80;87.40;;;;;;5053019;28;20025;-78
2022/10/15 05:33:27;;;;;;;12.77;10.77;;;15.80;87.80;;;;;;5052143;28;20021;-76
2022/10/15 05:35:53;;;;;;;18.50;10.30;;;15.70;87.40;;;;;;5053147;28;20429;-76
2022/10/15 05:38:19;;;;;;;16.38;10.20;;;15.70;87.30;;;;;;5053266;28;20100;-76
2022/10/15 05:40:49;;;;;;;27.40;10.05;;;15.70;87.60;;;;;;5054626;28;20382;-73
2022/10/15 05:43:14;;;;;;;16.83;9.93;;;15.70;87.50;;;;;;5056791;28;20052;-72
2022/10/15 05:45:41;;;;;;;19.13;10.63;;;15.70;87.20;;;;;;5056618;28;20021;-73
2022/10/15 05:48:06;;;;;;;19.98;11.25;;;15.70;87.20;;;;;;5055238;28;20027;-74
2022/10/15 05:50:32;;;;;;;12.68;9.60;;;15.70;87.40;;;;;;5056786;28;20025;-73
2022/10/15 05:52:58;;;;;;;14.93;10.55;;;15.70;87.20;;;;;;5056484;28;20057;-74
2022/10/15 05:55:24;;;;;;;18.15;10.75;;;15.80;87.20;;;;;;5056538;28;20025;-72
2022/10/15 05:57:49;;;;;;;15.85;11.20;;;15.80;87.10;;;;;;5056458;28;20049;-74
2022/10/15 06:00:15;;;;;;;16.35;10.27;;;15.80;87.10;;;;;;5055224;28;20017;-77
2022/10/15 06:02:41;;;;;;;17.35;10.35;;;15.80;87.00;;;;;;5056248;28;20021;-77
2022/10/15 06:05:07;;;;;;;20.90;10.50;;;15.80;86.80;;;;;;5054997;28;20020;-72
2022/10/15 06:07:34;;;;;;;15.23;10.82;;;15.80;86.90;;;;;;5056344;28;20021;-75
2022/10/15 06:10:00;;;;;;;17.77;10.40;;;15.80;87.30;;;;;;5056440;28;20048;-76
2022/10/15 06:12:25;;;;;;;17.13;10.07;;;15.90;86.80;;;;;;5056348;28;20094;-77
2022/10/15 06:14:51;;;;;;;17.27;10.25;;;15.90;86.60;;;;;;5056463;28;20438;-74
2022/10/15 06:17:19;;;;;;;22.00;10.85;;;15.90;86.70;;;;;;5056218;28;20090;-72
2022/10/15 06:19:44;;;;;;;17.05;11.23;;;16.00;86.90;;;;;;5056172;28;20025;-75
2022/10/15 06:22:10;;;;;;;16.45;10.80;;;16.10;86.20;;;;;;5057666;28;20124;-75
2022/10/15 06:24:36;;;;;;;15.07;10.98;;;16.20;86.10;;;;;;5055632;28;20079;-76
2022/10/15 06:27:02;;;;;;;15.75;9.85;;;16.30;85.50;;;;;;5055482;28;20029;-76
2022/10/15 06:29:27;;;;;;;14.65;9.55;;;16.30;84.90;;;;;;5056502;28;20025;-75
2022/10/15 06:31:53;;;;;;;17.77;9.60;;;16.50;84.50;;;;;;5056892;28;20017;-76
2022/10/15 06:34:19;;;;;;;15.38;9.88;;;16.60;84.30;;;;;;5055128;28;20029;-78
2022/10/15 06:36:44;;;;;;;14.65;9.68;;;16.70;84.20;;;;;;5054605;28;20497;-72
2022/10/15 06:39:10;;;;;;;15.63;9.50;;;16.80;83.80;;;;;;5054610;28;20025;-72
2022/10/15 06:41:36;;;;;;;14.02;10.23;;;16.80;83.40;;;;;;5058730;28;20331;-75
2022/10/15 06:44:01;;;;;;;16.02;9.90;;;16.90;83.40;;;;;;5057979;28;20025;-74
2022/10/15 06:46:28;;;;;;;15.75;10.13;;;17.00;83.40;;;;;;5060380;28;20051;-76
2022/10/15 06:48:54;;;;;;;15.13;9.30;;;17.10;83.20;;;;;;5058643;28;20433;-77
2022/10/15 06:51:21;;;;;;;16.40;9.50;;;17.20;82.70;;;;;;5056383;28;20029;-78
2022/10/15 06:53:46;;;;;;;15.35;8.80;;;17.40;82.60;;;;;;5055952;28;20055;-78
2022/10/15 06:56:12;;;;;;;13.48;8.93;;;17.50;82.30;;;;;;5055927;28;20055;-78
2022/10/15 06:58:41;;;;;;;14.82;9.18;;;17.60;81.70;;;;;;5055769;28;20044;-80
2022/10/15 07:01:08;;;;;;;14.38;10.23;;;17.70;80.70;;;;;;5055269;28;20021;-77
2022/10/15 07:03:35;;;;;;;14.77;9.82;;;17.80;80.70;;;;;;5055333;28;20176;-75
2022/10/15 07:06:06;;;;;;;14.82;9.32;;;17.90;80.40;;;;;;5055111;28;20025;-78
2022/10/15 07:08:32;;;;;;;15.43;9.27;;;18.00;80.20;;;;;;5054981;28;20432;-77
2022/10/15 07:11:04;;;;;;;12.82;9.43;;;18.10;79.70;;;;;;5055057;28;20036;-77
2022/10/15 07:13:31;;;;;;;14.30;8.80;;;18.10;79.80;;;;;;5055425;28;20032;-78
2022/10/15 07:15:57;;;;;;;15.25;9.45;;;18.10;78.80;;;;;;5055306;28;20033;-78
2022/10/15 07:18:23;;;;;;;16.60;8.88;;;18.20;78.70;;;;;;5055108;28;20059;-77
2022/10/15 07:20:49;;;;;;;18.35;9.32;;;18.20;78.30;;;;;;5054963;28;20066;-75
2022/10/15 07:23:21;;;;;;;14.50;8.75;;;18.30;78.40;;;;;;5055174;28;20398;-76
2022/10/15 07:25:47;;;;;;;16.40;9.20;;;18.30;77.60;;;;;;5057922;28;20056;-75
2022/10/15 07:28:13;;;;;;;11.48;8.43;;;18.40;77.50;;;;;;5070804;28;20021;-78
2022/10/15 07:30:39;;;;;;;13.63;8.52;;;18.40;76.90;;;;;;5068270;28;20064;-78
2022/10/15 07:33:04;;;;;;;15.70;8.75;;;18.40;76.80;;;;;;5053890;28;20044;-76
2022/10/15 07:35:32;;;;;;;13.70;8.73;;;18.50;76.60;;;;;;5055462;28;20108;-78
2022/10/15 07:38:03;;;;;;;14.32;8.80;;;18.40;77.00;;;;;;5055068;28;20142;-76
2022/10/15 07:40:29;;;;;;;13.00;7.85;;;18.50;76.50;;;;;;5054761;28;20017;-79
2022/10/15 07:42:57;;;;;;;13.05;7.75;;;18.50;75.90;;;;;;5054485;28;20505;-79
2022/10/15 07:45:24;;;;;;;17.27;8.48;;;18.50;75.60;;;;;;5054509;28;20028;-78
2022/10/15 07:47:50;;;;;;;15.48;8.80;;;18.50;75.20;;;;;;5053367;28;20056;-76
2022/10/15 07:50:16;;;;;;;14.63;8.77;;;18.50;75.70;;;;;;5054348;28;20437;-76
2022/10/15 07:52:41;;;;;;;16.17;8.68;;;18.50;76.30;;;;;;5054408;28;20052;-79
2022/10/15 07:55:07;;;;;;;13.18;8.32;;;18.40;75.90;;;;;;5054454;28;20031;-77
2022/10/15 07:57:34;;;;;;;12.35;8.45;;;18.40;75.50;;;;;;5054356;28;20137;-76
2022/10/15 07:59:59;;;;;;;15.85;9.07;;;18.40;75.60;;;;;;5053708;28;20025;-78
2022/10/15 08:02:25;;;;;;;12.90;8.55;;;18.50;75.60;;;;;;5053929;28;20029;-78
2022/10/15 08:04:51;;;;;;;15.98;8.70;;;18.50;75.70;;;;;;5053904;28;20103;-77
2022/10/15 08:07:17;;;;;;;17.73;9.25;;;18.50;75.90;;;;;;5052922;28;20021;-78
2022/10/15 08:09:43;;;;;;;13.43;8.93;;;18.50;75.30;;;;;;5054611;28;20095;-78
2022/10/15 08:12:09;;;;;;;13.60;8.63;;;18.60;75.50;;;;;;5054219;28;20466;-78
2022/10/15 08:14:35;;;;;;;14.82;9.52;;;18.60;75.60;;;;;;5054873;28;20055;-80
2022/10/15 08:17:03;;;;;;;12.68;8.98;;;18.70;75.50;;;;;;5053998;28;20040;-77
2022/10/15 08:19:29;;;;;;;13.40;7.97;;;18.70;75.10;;;;;;5052633;28;20063;-79
2022/10/15 08:21:55;;;;;;;13.25;8.85;;;18.70;75.20;;;;;;5054125;28;20033;-79
2022/10/15 08:24:21;;;;;;;11.85;7.97;;;18.70;75.10;;;;;;5052570;28;20496;-77
2022/10/15 08:26:46;;;;;;;13.10;8.02;;;18.70;75.30;;;;;;5054046;28;20108;-78
2022/10/15 08:29:15;;;;;;;12.82;9.07;;;18.70;75.20;;;;;;5053813;28;20095;-78
2022/10/15 08:31:41;;;;;;;11.60;7.93;;;18.80;76.10;;;;;;5054202;28;20025;-78
2022/10/15 08:34:07;;;;;;;13.48;9.07;;;18.80;75.30;;;;;;5053977;28;20036;-80
2022/10/15 08:36:33;;;;;;;12.93;8.23;;;18.90;75.10;;;;;;5053603;28;20033;-78
2022/10/15 08:38:59;;;;;;;13.88;9.32;;;18.90;75.00;;;;;;5052383;28;20090;-78
2022/10/15 08:41:39;;;;;;;15.93;9.73;;;18.90;75.30;;;;;;5053302;28;20029;-79
2022/10/15 08:44:18;;;;;;;14.70;9.32;;;18.90;75.40;;;;;;5053233;28;20025;-74
2022/10/15 08:46:48;;;;;;;14.05;8.75;;;18.90;76.10;;;;;;5053219;28;20029;-75
2022/10/15 08:49:39;;;;;;;14.48;9.55;;;19.00;75.30;;;;;;5052959;28;20021;-72
2022/10/15 08:52:20;;;;;;;13.10;9.50;;;19.10;76.20;;;;;;5052434;28;20029;-74
2022/10/15 08:54:47;;;;;;;14.93;9.20;;;19.10;76.30;;;;;;5052307;28;20025;-73
2022/10/15 08:57:50;;;;;;;19.23;8.90;;;19.20;75.60;;;;;;5052239;28;20103;-74
2022/10/15 09:00:22;;;;;;;13.75;9.00;;;19.30;76.30;;;;;;5052569;28;20404;-73
2022/10/15 09:03:01;;;;;;;14.93;9.43;;;19.40;75.30;;;;;;5051295;28;20115;-73
2022/10/15 09:05:48;;;;;;;13.32;9.27;;;19.40;75.20;;;;;;5052414;28;20033;-74
2022/10/15 09:08:20;;;;;;;15.18;9.85;;;19.50;75.90;;;;;;5052657;28;20116;-74
2022/10/15 09:10:50;;;;;;;17.10;10.10;;;19.50;75.10;;;;;;5051711;28;20025;-74
2022/10/15 09:13:34;;;;;;;12.50;9.32;;;19.60;74.80;;;;;;5051360;28;20029;-75
2022/10/15 09:16:17;;;;;;;13.13;9.18;;;19.70;75.50;;;;;;5055772;28;20025;-73
2022/10/15 09:18:48;;;;;;;14.18;9.88;;;19.80;75.00;;;;;;5056976;28;20409;-75
2022/10/15 09:21:14;;;;;;;18.98;10.45;;;19.90;75.70;;;;;;5056663;28;20104;-77
2022/10/15 09:23:43;;;;;;;17.60;9.65;;;20.00;75.50;;;;;;5055104;28;20382;-73
2022/10/15 09:26:43;;;;;;;20.27;10.68;;;20.00;75.10;;;;;;5056129;28;20025;-74
2022/10/15 09:29:27;;;;;;;20.58;10.55;;;20.20;75.50;;;;;;5013288;28;20037;-76
2022/10/15 09:32:15;;;;;;;17.95;10.85;;;20.20;74.70;;;;;;5056713;28;20036;-76
2022/10/15 09:34:53;;;;;;;16.33;10.15;;;20.30;75.30;;;;;;5055447;28;20039;-78
2022/10/15 09:37:50;;;;;;;12.75;9.27;;;20.40;75.00;;;;;;5056622;28;20032;-78
2022/10/15 09:40:53;;;;;;;19.25;11.40;;;20.50;74.30;;;;;;5053195;28;20486;-77
2022/10/15 09:43:29;;;;;;;16.48;10.32;;;20.60;74.70;;;;;;5054984;28;20078;-74
2022/10/15 09:45:56;;;;;;;21.00;11.15;;;20.70;74.90;;;;;;5056137;28;20044;-76
2022/10/15 09:48:24;;;;;;;14.38;9.65;;;20.90;75.70;;;;;;5056415;28;20414;-78
2022/10/15 09:50:59;;;;;;;13.10;9.90;;;21.00;73.90;;;;;;5056895;28;20087;-77
2022/10/15 09:53:51;;;;;;;17.77;10.38;;;21.10;73.80;;;;;;5035268;28;20025;-79
2022/10/15 09:56:27;;;;;;;19.20;10.10;;;21.20;73.50;;;;;;5057266;28;20029;-76
2022/10/15 09:58:57;;;;;;;17.90;9.98;;;21.20;73.20;;;;;;5064616;28;20049;-76
2022/10/15 10:01:29;;;;;;;16.52;9.32;;;21.30;73.20;;;;;;5063824;28;20029;-75
2022/10/15 10:04:19;;;;;;;17.05;10.70;;;21.40;73.60;;;;;;5057140;28;20054;-78
2022/10/15 10:06:52;;;;;;;16.35;10.75;;;21.50;72.60;;;;;;5056591;28;20029;-76
2022/10/15 10:09:40;;;;;;;17.00;10.90;;;21.60;72.50;;;;;;5056192;28;20095;-73
2022/10/15 10:12:20;;;;;;;15.93;10.23;;;21.70;73.10;;;;;;5041916;28;20037;-79
2022/10/15 10:14:55;;;;;;;14.90;9.82;;;21.80;72.80;;;;;;5055406;28;20436;-76
2022/10/15 10:17:25;;;;;;;15.82;9.73;;;22.00;71.80;;;;;;5054641;28;20504;-78
2022/10/15 10:20:17;;;;;;;15.85;10.98;;;22.00;71.40;;;;;;5054352;28;20032;-72
2022/10/15 10:22:54;;;;;;;13.80;9.60;;;22.10;70.00;;;;;;5037934;28;20063;-77
2022/10/15 10:25:25;;;;;;;15.45;9.57;;;22.10;70.90;;;;;;5056034;28;20502;-78
2022/10/15 10:28:12;;;;;;;14.02;9.73;;;22.20;71.40;;;;;;5055099;28;20112;-78
2022/10/15 10:30:50;;;;;;;12.57;8.35;;;22.30;70.80;;;;;;5055162;28;20082;-74
2022/10/15 10:33:27;;;;;;;10.07;7.65;;;22.40;68.00;;;;;;5056128;28;20025;-80
2022/10/15 10:35:54;;;;;;;17.83;8.35;;;22.50;69.10;;;;;;5055547;28;20037;-79
2022/10/15 10:38:38;;;;;;;14.05;8.20;;;22.60;68.70;;;;;;5055770;28;20025;-78
2022/10/15 10:41:09;;;;;;;14.15;7.30;;;22.70;67.70;;;;;;5054054;28;20029;-78
2022/10/15 10:43:39;;;;;;;9.43;6.78;;;22.70;66.70;;;;;;5053810;28;20025;-78
2022/10/15 10:46:14;;;;;;;10.55;7.60;;;22.80;65.70;;;;;;5055331;28;20021;-78
2022/10/15 10:48:41;;;;;;;10.63;7.18;;;22.90;65.00;;;;;;5055772;28;20082;-77
2022/10/15 10:51:17;;;;;;;12.77;7.65;;;23.00;64.60;;;;;;5055612;28;20025;-79
2022/10/15 10:54:01;;;;;;;12.93;7.63;;;23.10;62.50;;;;;;5054002;28;20498;-78
2022/10/15 10:56:36;;;;;;;13.38;7.88;;;23.20;62.40;;;;;;5070305;22;20167;-76
2022/10/15 10:59:27;;;;;;;11.60;7.15;;;23.20;61.50;;;;;;5037689;28;20036;-79
2022/10/15 11:01:55;;;;;;;9.82;6.38;;;23.30;63.10;;;;;;5055299;28;20174;-80
2022/10/15 11:04:31;;;;;;;9.85;6.55;;;23.30;62.10;;;;;;5055549;28;20351;-75
2022/10/15 11:07:04;;;;;;;12.25;7.55;;;23.50;62.10;;;;;;5054911;28;20025;-76
2022/10/15 11:09:45;;;;;;;10.48;7.15;;;23.60;62.00;;;;;;5055246;28;20056;-76
2022/10/15 11:12:52;;;;;;;9.90;7.03;;;23.70;60.80;;;;;;5054959;28;20028;-74
2022/10/15 11:15:41;;;;;;;15.27;7.70;;;23.80;61.10;;;;;;5020993;28;20124;-76
2022/10/15 11:18:41;;;;;;;10.13;6.60;;;23.80;62.70;;;;;;5055101;28;20025;-76
2022/10/15 11:21:40;;;;;;;12.77;7.65;;;24.00;60.70;;;;;;5016855;28;20075;-75
2022/10/15 11:24:05;;;;;;;12.48;6.85;;;24.10;60.90;;;;;;5055122;28;20075;-75
2022/10/15 11:26:40;;;;;;;11.75;7.35;;;24.10;61.70;;;;;;5055960;28;20017;-76
2022/10/15 11:29:08;;;;;;;13.68;9.10;;;24.20;60.80;;;;;;5056153;28;20116;-77
2022/10/15 11:32:03;;;;;;;12.35;7.25;;;24.30;61.20;;;;;;5055917;28;20439;-81
2022/10/15 11:34:57;;;;;;;13.25;6.50;;;24.40;60.10;;;;;;5057352;28;20088;-77
2022/10/15 11:37:46;;;;;;;10.90;6.43;;;24.50;60.00;;;;;;5056507;28;20029;-78
2022/10/15 11:40:57;;;;;;;13.57;6.45;;;24.50;60.20;;;;;;5058612;28;20025;-78
2022/10/15 11:43:44;;;;;;;14.10;6.38;;;24.60;59.40;;;;;;5037059;28;20072;-79
2022/10/15 11:46:44;;;;;;;11.95;7.22;;;24.70;59.80;;;;;;5054734;28;20364;-82
2022/10/15 11:49:27;;;;;;;11.48;7.03;;;24.70;59.40;;;;;;5055150;28;20021;-81
2022/10/15 11:52:12;;;;;;;11.20;6.93;;;24.80;59.00;;;;;;5054839;28;20014;-82
2022/10/15 11:55:11;;;;;;;10.65;6.43;;;24.80;58.90;;;;;;5054695;28;20029;-82
2022/10/15 11:57:39;;;;;;;9.00;5.53;;;24.70;58.70;;;;;;5055474;28;20053;-82
2022/10/15 12:00:28;;;;;;;12.10;5.55;;;24.80;59.30;;;;;;5055559;28;20036;-80
2022/10/15 12:02:55;;;;;;;10.57;5.70;;;24.80;57.50;;;;;;5054933;28;20017;-79
2022/10/15 12:05:32;;;;;;;9.70;5.50;;;24.80;58.30;;;;;;5054252;28;20018;-83
2022/10/15 12:08:00;;;;;;;10.55;5.47;;;24.90;58.00;;;;;;5054587;28;20032;-81
2022/10/15 12:10:37;;;;;;;12.25;5.40;;;25.00;57.90;;;;;;5054779;28;20025;-82
2022/10/15 12:13:17;;;;;;;11.70;5.22;;;25.10;57.30;;;;;;5053391;28;20037;-76
2022/10/15 12:16:02;;;;;;;10.38;4.70;;;25.10;57.30;;;;;;5053567;28;20036;-77
2022/10/15 12:18:34;;;;;;;11.93;5.13;;;25.20;56.50;;;;;;5036609;28;20071;-78
2022/10/15 12:20:59;;;;;;;9.90;4.45;;;25.20;56.70;;;;;;5055316;28;20068;-77
2022/10/15 12:23:37;;;;;;;8.57;4.15;;;25.20;56.90;;;;;;5054308;28;20497;-76
2022/10/15 12:26:23;;;;;;;6.07;3.90;;;25.20;56.70;;;;;;5053373;28;20040;-77
2022/10/15 12:28:51;;;;;;;9.43;4.28;;;25.20;56.30;;;;;;5053204;28;20029;-76
2022/10/15 12:31:19;;;;;;;13.13;5.55;;;25.20;56.50;;;;;;5053511;28;20100;-75
2022/10/15 12:33:51;;;;;;;10.20;6.07;;;25.20;56.10;;;;;;5053655;28;20028;-77
2022/10/15 12:36:20;;;;;;;10.27;5.57;;;25.30;56.30;;;;;;5053330;28;20435;-76
2022/10/15 12:38:59;;;;;;;9.32;5.03;;;25.40;56.20;;;;;;5054438;28;20029;-80
2022/10/15 12:41:46;;;;;;;9.15;5.15;;;25.50;56.10;;;;;;5053736;28;20032;-78
2022/10/15 12:44:27;;;;;;;10.40;5.70;;;25.50;56.00;;;;;;5035454;28;20107;-76
2022/10/15 12:46:53;;;;;;;9.77;6.05;;;25.60;54.90;;;;;;5052966;28;20028;-76
2022/10/15 12:49:25;;;;;;;8.63;4.72;;;25.70;55.60;;;;;;5052904;28;20029;-77
2022/10/15 12:51:51;;;;;;;10.63;6.13;;;25.70;55.30;;;;;;5053151;28;20033;-77
2022/10/15 12:54:45;;;;;;;10.82;5.00;;;25.80;55.50;;;;;;5053337;28;20091;-76
2022/10/15 12:57:29;;;;;;;11.82;5.50;;;25.90;54.40;;;;;;5053100;28;20548;-78